Time;durP1;ratioP1;P1;durP2;ratioP2;P2;SDS_P1;SDS_P2;PMS_P1;PMS_P2;Temp;Humidity;BMP_temperature;BMP_pressure;BME280_temperature;BME280_humidity;BME280_pressure;Samples;Min_cycle;Max_cycle;Signal;HPM_P1;HPM_P2
2020/12/29 00:00:58;;;;;;;4.30;2.00;;;6.40;99.90;;;;;;4141023;28;20590;-46
2020/12/29 00:02:59;;;;;;;4.27;2.37;;;6.40;99.90;;;;;;4140276;28;20099;-52
2020/12/29 00:05:01;;;;;;;4.93;2.50;;;6.50;99.90;;;;;;4141051;28;20264;-50
2020/12/29 00:07:04;;;;;;;3.27;2.40;;;6.50;99.90;;;;;;4140174;28;20474;-53
2020/12/29 00:09:06;;;;;;;3.47;2.13;;;6.50;99.90;;;;;;4141316;28;20038;-45
2020/12/29 00:11:07;;;;;;;5.63;3.30;;;6.60;99.90;;;;;;4139688;28;20054;-51
2020/12/29 00:13:09;;;;;;;2.97;2.00;;;6.50;99.90;;;;;;4141232;28;20280;-51
2020/12/29 00:15:11;;;;;;;4.40;2.33;;;6.60;99.90;;;;;;4140514;28;20330;-54
2020/12/29 00:17:12;;;;;;;3.00;1.90;;;6.50;99.90;;;;;;4141221;28;20029;-54
2020/12/29 00:19:17;;;;;;;3.10;2.30;;;6.60;99.90;;;;;;4139739;28;20278;-59
2020/12/29 00:21:20;;;;;;;5.50;2.47;;;6.50;99.90;;;;;;4134876;28;20112;-52
2020/12/29 00:23:21;;;;;;;4.93;2.40;;;6.50;99.90;;;;;;4139839;28;20100;-54
2020/12/29 00:25:22;;;;;;;5.07;2.33;;;6.50;99.90;;;;;;4140236;28;20045;-57
2020/12/29 00:27:23;;;;;;;7.90;2.80;;;6.50;99.90;;;;;;4140544;28;21074;-50
2020/12/29 00:29:24;;;;;;;4.07;2.33;;;6.50;99.90;;;;;;4139701;28;20660;-51
2020/12/29 00:31:26;;;;;;;3.87;2.43;;;6.60;99.90;;;;;;4139725;28;20073;-47
2020/12/29 00:33:27;;;;;;;3.97;2.30;;;6.60;99.90;;;;;;4139998;28;20042;-48
2020/12/29 00:35:28;;;;;;;4.50;2.33;;;6.60;99.90;;;;;;4140593;28;20054;-45
2020/12/29 00:37:29;;;;;;;4.73;2.00;;;6.60;99.90;;;;;;4139148;28;20041;-48
2020/12/29 00:39:30;;;;;;;3.63;2.10;;;6.60;99.90;;;;;;4123128;28;20050;-46
2020/12/29 00:41:31;;;;;;;3.43;2.43;;;6.70;99.90;;;;;;4138968;28;20291;-47
2020/12/29 00:43:33;;;;;;;3.63;2.20;;;6.80;99.90;;;;;;4140523;28;20748;-48
2020/12/29 00:45:34;;;;;;;3.20;2.10;;;6.70;99.90;;;;;;4139573;28;20115;-48
2020/12/29 00:47:35;;;;;;;3.97;1.80;;;6.70;99.90;;;;;;4143606;28;20046;-45
2020/12/29 00:49:38;;;;;;;3.83;1.90;;;6.80;99.90;;;;;;4139684;28;20066;-47
2020/12/29 00:51:39;;;;;;;3.83;1.80;;;6.80;99.90;;;;;;4139871;28;20062;-54
2020/12/29 00:53:41;;;;;;;4.93;2.93;;;6.80;99.90;;;;;;4139213;28;20533;-49
2020/12/29 00:55:42;;;;;;;3.67;2.33;;;6.80;99.90;;;;;;4139762;28;20038;-49
2020/12/29 00:57:43;;;;;;;2.40;2.20;;;6.80;99.90;;;;;;4139906;28;20049;-56
2020/12/29 00:59:44;;;;;;;3.50;2.50;;;6.80;99.90;;;;;;4139670;28;21063;-56
2020/12/29 01:01:56;;;;;;;3.00;1.80;;;6.70;99.90;;;;;;4141067;28;20087;-54
2020/12/29 01:03:57;;;;;;;2.43;1.90;;;6.70;99.90;;;;;;4143384;28;20334;-48
2020/12/29 01:05:58;;;;;;;5.17;2.30;;;6.70;99.90;;;;;;4142736;28;20050;-48
2020/12/29 01:07:59;;;;;;;4.87;2.10;;;6.70;99.90;;;;;;4142639;28;20173;-50
2020/12/29 01:10:00;;;;;;;4.53;2.53;;;6.70;99.90;;;;;;4143224;28;20089;-50
2020/12/29 01:12:02;;;;;;;3.53;1.63;;;6.70;99.90;;;;;;4142054;28;20095;-50
2020/12/29 01:14:03;;;;;;;3.67;2.00;;;6.60;99.90;;;;;;4143945;28;20151;-47
2020/12/29 01:16:05;;;;;;;9.60;2.90;;;6.60;99.90;;;;;;4142335;28;20049;-56
2020/12/29 01:18:07;;;;;;;4.37;2.10;;;6.60;99.90;;;;;;4126333;28;20804;-50
2020/12/29 01:20:08;;;;;;;3.53;2.13;;;6.60;99.90;;;;;;4142175;28;20042;-60
2020/12/29 01:22:09;;;;;;;5.33;2.33;;;6.70;99.90;;;;;;4143567;28;20111;-50
2020/12/29 01:24:10;;;;;;;3.90;2.57;;;6.80;99.90;;;;;;4142647;28;20034;-48
2020/12/29 01:26:11;;;;;;;2.17;1.80;;;6.80;99.90;;;;;;4143108;28;20042;-45
2020/12/29 01:28:13;;;;;;;2.73;1.80;;;6.80;99.90;;;;;;4142748;28;20041;-50
2020/12/29 01:30:15;;;;;;;3.60;1.97;;;6.70;99.90;;;;;;4142871;28;20735;-49
2020/12/29 01:32:16;;;;;;;3.57;2.20;;;6.70;99.90;;;;;;4142942;28;20038;-48
2020/12/29 01:34:17;;;;;;;3.63;2.00;;;6.70;99.90;;;;;;4142968;28;20096;-52
2020/12/29 01:36:18;;;;;;;3.53;2.20;;;6.70;99.90;;;;;;4142680;28;20045;-51
2020/12/29 01:38:19;;;;;;;4.33;1.80;;;6.70;99.90;;;;;;4142595;28;20026;-51
2020/12/29 01:40:20;;;;;;;3.83;2.50;;;6.60;99.90;;;;;;4143423;28;20481;-52
2020/12/29 01:42:23;;;;;;;8.60;2.93;;;6.70;99.90;;;;;;4142113;28;20033;-48
2020/12/29 01:44:24;;;;;;;2.87;2.10;;;6.60;99.90;;;;;;4143288;28;20072;-53
2020/12/29 01:46:25;;;;;;;3.77;2.40;;;6.50;99.90;;;;;;4141826;28;20458;-46
2020/12/29 01:48:26;;;;;;;5.30;2.57;;;6.50;99.90;;;;;;4142395;28;20049;-44
2020/12/29 01:50:27;;;;;;;3.27;2.40;;;6.60;99.90;;;;;;4141587;28;20053;-47
2020/12/29 01:52:29;;;;;;;4.63;2.20;;;6.70;99.90;;;;;;4143247;28;20029;-49
2020/12/29 01:54:31;;;;;;;4.83;2.63;;;6.70;99.90;;;;;;4142605;28;20022;-57
2020/12/29 01:56:39;;;;;;;4.63;2.63;;;6.80;99.90;;;;;;4142999;28;20057;-49
2020/12/29 01:58:41;;;;;;;3.80;2.43;;;6.70;99.90;;;;;;4141873;28;20077;-44
2020/12/29 02:00:42;;;;;;;4.40;2.60;;;6.70;99.90;;;;;;4142327;28;20063;-46
2020/12/29 02:02:43;;;;;;;7.07;2.53;;;6.60;99.90;;;;;;4141582;28;20088;-47
2020/12/29 02:04:44;;;;;;;4.83;3.07;;;6.60;99.90;;;;;;4142012;28;20041;-56
2020/12/29 02:06:46;;;;;;;4.93;2.43;;;6.50;99.90;;;;;;4142081;28;20026;-45
2020/12/29 02:08:49;;;;;;;6.30;3.27;;;6.50;99.90;;;;;;4141716;28;20076;-47
2020/12/29 02:10:53;;;;;;;5.83;3.30;;;6.40;99.90;;;;;;4142195;28;20592;-48
2020/12/29 02:12:56;;;;;;;6.80;3.30;;;6.30;99.90;;;;;;4139986;28;20100;-48
2020/12/29 02:14:57;;;;;;;10.43;4.33;;;6.30;99.90;;;;;;4142369;28;20042;-53
2020/12/29 02:17:00;;;;;;;6.03;2.63;;;6.20;99.90;;;;;;4141206;28;20050;-51
2020/12/29 02:19:01;;;;;;;4.50;3.13;;;6.10;99.90;;;;;;4142768;28;20041;-55
2020/12/29 02:21:02;;;;;;;4.27;3.13;;;6.10;99.90;;;;;;4141267;28;20548;-55
2020/12/29 02:23:03;;;;;;;8.60;3.60;;;6.10;99.90;;;;;;4142312;28;20112;-45
2020/12/29 02:25:07;;;;;;;7.20;4.27;;;6.00;99.90;;;;;;4141357;28;20034;-55
2020/12/29 02:27:08;;;;;;;6.10;3.10;;;6.00;99.90;;;;;;4143056;28;20482;-51
2020/12/29 02:29:09;;;;;;;5.33;3.00;;;5.90;99.90;;;;;;4141618;28;20037;-50
2020/12/29 02:31:10;;;;;;;6.63;3.13;;;5.90;99.90;;;;;;4142530;28;20165;-57
2020/12/29 02:33:11;;;;;;;6.37;3.13;;;5.90;99.90;;;;;;4141572;28;20142;-45
2020/12/29 02:35:17;;;;;;;6.20;3.20;;;5.90;99.90;;;;;;4142056;28;20042;-51
2020/12/29 02:37:19;;;;;;;6.33;3.63;;;5.80;99.90;;;;;;4142012;28;20038;-51
2020/12/29 02:39:20;;;;;;;10.87;3.80;;;5.80;99.90;;;;;;4140810;28;21510;-61
2020/12/29 02:41:21;;;;;;;6.93;3.60;;;5.70;99.90;;;;;;4141131;28;20469;-58
2020/12/29 02:43:22;;;;;;;6.70;3.80;;;5.70;99.90;;;;;;4141987;28;20610;-45
2020/12/29 02:45:23;;;;;;;10.30;3.63;;;5.70;99.90;;;;;;4142578;28;20100;-50
2020/12/29 02:47:24;;;;;;;7.93;3.50;;;5.60;99.90;;;;;;4122938;28;20343;-57
2020/12/29 02:49:26;;;;;;;5.03;3.43;;;5.50;99.90;;;;;;4142268;28;20330;-56
2020/12/29 02:51:27;;;;;;;5.27;2.77;;;5.50;99.90;;;;;;4140358;28;20799;-49
2020/12/29 02:53:28;;;;;;;5.33;3.43;;;5.50;99.90;;;;;;4142344;28;20279;-50
2020/12/29 02:55:29;;;;;;;6.63;3.50;;;5.50;99.90;;;;;;4140457;28;20286;-46
2020/12/29 02:57:30;;;;;;;4.90;3.20;;;5.50;99.90;;;;;;4142241;28;20341;-49
2020/12/29 02:59:31;;;;;;;4.00;2.50;;;5.50;99.90;;;;;;4140792;28;20283;-44
2020/12/29 03:01:34;;;;;;;3.80;2.33;;;5.60;99.90;;;;;;4142327;28;20275;-58
2020/12/29 03:03:35;;;;;;;5.77;3.17;;;5.60;99.90;;;;;;4141260;28;20263;-45
2020/12/29 03:05:36;;;;;;;3.10;2.50;;;5.60;99.90;;;;;;4140914;28;20283;-48
2020/12/29 03:07:37;;;;;;;4.67;3.00;;;5.60;99.90;;;;;;4141158;28;20279;-45
2020/12/29 03:09:38;;;;;;;7.23;3.03;;;5.60;99.90;;;;;;4141465;28;20752;-49
2020/12/29 03:11:41;;;;;;;3.70;2.30;;;5.60;99.90;;;;;;4141266;28;20299;-45
2020/12/29 03:13:42;;;;;;;4.73;2.40;;;5.70;99.90;;;;;;4141000;28;21138;-54
2020/12/29 03:15:43;;;;;;;5.27;3.07;;;5.70;99.90;;;;;;4142236;28;20813;-46
2020/12/29 03:17:44;;;;;;;5.80;2.70;;;5.70;99.90;;;;;;4140261;28;20330;-53
2020/12/29 03:19:45;;;;;;;4.17;2.63;;;5.70;99.90;;;;;;4141493;28;20326;-49
2020/12/29 03:21:47;;;;;;;4.87;2.47;;;5.70;99.90;;;;;;4140429;28;21669;-51
2020/12/29 03:23:49;;;;;;;4.53;3.00;;;5.80;99.90;;;;;;4142253;28;20760;-50
2020/12/29 03:25:50;;;;;;;6.90;3.10;;;6.00;99.90;;;;;;4140282;28;20264;-46
2020/12/29 03:27:51;;;;;;;10.90;4.70;;;6.00;99.90;;;;;;4141645;28;20271;-49
2020/12/29 03:29:52;;;;;;;7.80;4.10;;;6.10;99.90;;;;;;4140300;28;20326;-55
2020/12/29 03:31:53;;;;;;;6.87;3.80;;;6.10;99.90;;;;;;4141886;28;20353;-56
2020/12/29 03:33:54;;;;;;;6.60;4.20;;;6.20;99.90;;;;;;4140701;28;20053;-50
2020/12/29 03:35:55;;;;;;;5.17;2.67;;;6.30;99.90;;;;;;4141379;28;20514;-52
2020/12/29 03:37:58;;;;;;;5.80;2.90;;;6.30;99.90;;;;;;4140458;28;20305;-49
2020/12/29 03:39:59;;;;;;;4.50;2.53;;;6.40;99.90;;;;;;4140257;28;20033;-50
2020/12/29 03:42:01;;;;;;;3.93;2.50;;;6.40;99.90;;;;;;4140457;28;20276;-49
2020/12/29 03:44:02;;;;;;;4.50;2.60;;;6.50;99.90;;;;;;4140342;28;20350;-52
2020/12/29 03:46:04;;;;;;;4.00;2.47;;;6.60;99.90;;;;;;4141169;28;20410;-56
2020/12/29 03:48:06;;;;;;;3.43;2.13;;;6.70;99.90;;;;;;4140015;28;20084;-51
2020/12/29 03:50:07;;;;;;;3.87;2.20;;;6.70;99.90;;;;;;4141369;28;20100;-47
2020/12/29 03:52:08;;;;;;;4.67;2.83;;;6.80;99.90;;;;;;4140122;28;20563;-46
2020/12/29 03:54:09;;;;;;;5.70;2.97;;;6.80;99.90;;;;;;4141207;28;20440;-49
2020/12/29 03:56:10;;;;;;;3.67;2.37;;;6.80;99.90;;;;;;4122600;28;20042;-46
2020/12/29 03:58:11;;;;;;;4.13;2.30;;;6.80;99.90;;;;;;4141462;28;20037;-50
2020/12/29 04:00:12;;;;;;;5.00;2.80;;;6.80;99.90;;;;;;4139386;28;20038;-47
2020/12/29 04:02:13;;;;;;;7.20;3.03;;;6.80;99.90;;;;;;4141109;28;20112;-46
2020/12/29 04:04:15;;;;;;;4.57;2.50;;;6.70;99.90;;;;;;4140743;28;20815;-51
2020/12/29 04:06:16;;;;;;;2.93;2.00;;;6.70;99.90;;;;;;4141311;28;20042;-52
2020/12/29 04:08:17;;;;;;;4.80;2.40;;;6.90;99.90;;;;;;4140030;28;20080;-57
2020/12/29 04:10:18;;;;;;;2.80;1.50;;;7.40;99.90;;;;;;4140661;28;20487;-51
2020/12/29 04:12:19;;;;;;;2.50;1.30;;;8.00;99.90;;;;;;4140155;28;20415;-49
2020/12/29 04:14:20;;;;;;;1.77;1.40;;;8.30;99.90;;;;;;4140816;28;20072;-53
2020/12/29 04:16:22;;;;;;;1.80;1.20;;;8.50;99.90;;;;;;4140482;28;20430;-51
2020/12/29 04:18:23;;;;;;;3.40;1.27;;;8.70;99.90;;;;;;4140342;28;20084;-44
2020/12/29 04:20:25;;;;;;;2.00;1.40;;;8.80;99.90;;;;;;4140982;28;20174;-47
2020/12/29 04:22:30;;;;;;;0.93;0.80;;;8.80;99.90;;;;;;4139407;28;20049;-51
2020/12/29 04:24:31;;;;;;;3.87;1.87;;;8.80;99.90;;;;;;4140486;28;20037;-45
2020/12/29 04:26:34;;;;;;;3.90;2.03;;;8.80;99.90;;;;;;4139487;28;20083;-50
2020/12/29 04:28:35;;;;;;;4.53;2.40;;;8.80;99.90;;;;;;4140888;28;20041;-50
2020/12/29 04:30:36;;;;;;;1.77;1.40;;;8.80;99.90;;;;;;4139785;28;20038;-48
2020/12/29 04:32:38;;;;;;;3.23;1.80;;;8.80;99.90;;;;;;4141148;28;20045;-52
2020/12/29 04:34:39;;;;;;;1.83;1.53;;;8.80;99.90;;;;;;4140211;28;20038;-54
2020/12/29 04:36:40;;;;;;;1.90;1.07;;;8.80;99.90;;;;;;4141589;28;20041;-47
2020/12/29 04:38:41;;;;;;;1.43;1.30;;;8.80;99.90;;;;;;4141968;28;20596;-47
2020/12/29 04:40:43;;;;;;;3.40;1.53;;;8.90;99.90;;;;;;4143342;28;20045;-54
2020/12/29 04:42:45;;;;;;;2.37;0.80;;;8.90;99.90;;;;;;4143257;28;20108;-50
2020/12/29 04:44:47;;;;;;;2.37;1.00;;;9.00;99.90;;;;;;4143683;28;20045;-51
2020/12/29 04:46:49;;;;;;;2.77;1.20;;;9.10;99.90;;;;;;4143295;28;20046;-55
2020/12/29 04:48:51;;;;;;;1.93;1.17;;;9.10;99.90;;;;;;4142404;28;20042;-46
2020/12/29 04:50:56;;;;;;;1.27;1.17;;;9.10;99.90;;;;;;4143346;28;20820;-46
2020/12/29 04:52:57;;;;;;;1.20;0.97;;;9.20;99.90;;;;;;4142731;28;20111;-51
2020/12/29 04:55:00;;;;;;;2.70;1.10;;;9.20;99.90;;;;;;4143914;28;20088;-47
2020/12/29 04:57:03;;;;;;;2.73;0.90;;;9.10;99.90;;;;;;4142689;28;20037;-48
2020/12/29 04:59:04;;;;;;;1.60;1.17;;;9.10;99.90;;;;;;4144022;28;20030;-46
2020/12/29 05:01:08;;;;;;;2.20;1.57;;;9.10;99.90;;;;;;4142167;28;20478;-46
2020/12/29 05:03:10;;;;;;;1.20;1.07;;;9.20;99.90;;;;;;4144018;28;20030;-52
2020/12/29 05:05:11;;;;;;;1.20;1.10;;;9.20;99.90;;;;;;4126153;28;20046;-47
2020/12/29 05:07:12;;;;;;;1.03;0.97;;;9.30;99.90;;;;;;4144283;28;20096;-48
2020/12/29 05:09:13;;;;;;;1.47;0.90;;;9.20;99.90;;;;;;4142904;28;20092;-49
2020/12/29 05:11:16;;;;;;;1.87;1.13;;;9.20;99.90;;;;;;4126046;28;20104;-46
2020/12/29 05:13:18;;;;;;;2.50;1.10;;;9.20;99.90;;;;;;4124767;28;20042;-50
2020/12/29 05:15:20;;;;;;;1.50;0.93;;;9.20;99.90;;;;;;4143001;28;20438;-50
2020/12/29 05:17:22;;;;;;;1.43;1.00;;;9.20;99.90;;;;;;4142484;28;20127;-53
2020/12/29 05:19:24;;;;;;;1.33;0.80;;;9.20;99.90;;;;;;4142914;28;20970;-51
2020/12/29 05:21:26;;;;;;;1.40;1.00;;;9.20;99.90;;;;;;4142602;28;20568;-54
2020/12/29 05:23:29;;;;;;;2.27;1.00;;;9.20;99.90;;;;;;4143131;28;20038;-47
2020/12/29 05:25:30;;;;;;;1.87;1.00;;;9.20;99.90;;;;;;4142761;28;20050;-51
2020/12/29 05:27:36;;;;;;;1.83;1.00;;;9.20;99.90;;;;;;4141815;28;20128;-45
2020/12/29 05:29:37;;;;;;;3.13;0.83;;;9.20;99.90;;;;;;4143136;28;20033;-49
2020/12/29 05:31:44;;;;;;;2.00;1.07;;;9.10;99.90;;;;;;4141493;28;20053;-51
2020/12/29 05:33:46;;;;;;;1.67;1.00;;;9.10;99.90;;;;;;4143877;28;20053;-46
2020/12/29 05:35:51;;;;;;;2.27;0.90;;;9.00;99.90;;;;;;4141820;28;20046;-53
2020/12/29 05:37:52;;;;;;;1.10;0.70;;;9.00;99.90;;;;;;4143281;28;20046;-45
2020/12/29 05:39:53;;;;;;;7.47;1.30;;;8.90;99.90;;;;;;4141728;28;20112;-47
2020/12/29 05:41:56;;;;;;;4.00;0.93;;;8.80;99.90;;;;;;4143303;28;20720;-47
2020/12/29 05:44:01;;;;;;;3.30;1.10;;;8.70;99.90;;;;;;4142257;28;20030;-49
2020/12/29 05:46:08;;;;;;;2.80;0.80;;;8.60;99.90;;;;;;4155839;28;20091;-49
2020/12/29 05:48:09;;;;;;;8.33;1.07;;;8.50;99.90;;;;;;4140314;28;20070;-54
2020/12/29 05:50:13;;;;;;;2.67;0.60;;;8.40;99.90;;;;;;4152636;28;20049;-46
2020/12/29 05:52:15;;;;;;;1.20;0.70;;;8.30;99.90;;;;;;4141715;28;20140;-54
2020/12/29 05:54:17;;;;;;;2.07;0.90;;;8.30;99.90;;;;;;4142136;28;20561;-49
2020/12/29 05:56:19;;;;;;;0.70;0.40;;;8.20;99.90;;;;;;4141577;28;20087;-53
2020/12/29 05:58:22;;;;;;;1.23;0.37;;;8.10;99.90;;;;;;4142780;28;20441;-57
2020/12/29 06:00:26;;;;;;;0.53;0.37;;;8.10;99.90;;;;;;4141825;28;20046;-47
2020/12/29 06:02:27;;;;;;;0.40;0.30;;;8.10;99.90;;;;;;4142297;28;20802;-60
2020/12/29 06:04:30;;;;;;;0.63;0.50;;;8.00;99.90;;;;;;4142842;28;20038;-47
2020/12/29 06:06:32;;;;;;;0.87;0.30;;;8.00;99.90;;;;;;4141552;28;20136;-54
2020/12/29 06:08:36;;;;;;;0.50;0.33;;;8.00;99.90;;;;;;4142924;28;20108;-50
2020/12/29 06:10:39;;;;;;;1.83;0.60;;;8.00;99.90;;;;;;4141695;28;20470;-47
2020/12/29 06:12:47;;;;;;;0.83;0.30;;;8.00;99.90;;;;;;4125085;28;20050;-50
2020/12/29 06:14:57;;;;;;;0.53;0.30;;;8.00;99.90;;;;;;4141459;28;20030;-48
2020/12/29 06:16:59;;;;;;;0.50;0.30;;;8.00;99.90;;;;;;4142535;28;20050;-46
2020/12/29 06:19:03;;;;;;;0.80;0.40;;;7.90;99.90;;;;;;4123109;28;20604;-46
2020/12/29 06:21:07;;;;;;;1.17;0.60;;;7.90;99.90;;;;;;4142482;28;20100;-49
2020/12/29 06:23:10;;;;;;;1.93;0.60;;;7.90;99.90;;;;;;4141038;28;20497;-53
2020/12/29 06:25:17;;;;;;;1.47;0.30;;;7.80;99.90;;;;;;4141830;28;20132;-56
2020/12/29 06:27:18;;;;;;;0.60;0.50;;;7.80;99.90;;;;;;4140711;28;20034;-59
2020/12/29 06:29:22;;;;;;;1.07;0.43;;;7.80;99.90;;;;;;4142996;28;20076;-50
2020/12/29 06:31:27;;;;;;;0.73;0.43;;;7.70;99.90;;;;;;4141156;28;20089;-46
2020/12/29 06:33:31;;;;;;;0.40;0.23;;;7.60;99.90;;;;;;4141686;28;20053;-51
2020/12/29 06:35:32;;;;;;;0.47;0.30;;;7.60;99.90;;;;;;4157053;28;20509;-52
2020/12/29 06:37:42;;;;;;;0.30;0.20;;;7.50;99.90;;;;;;4158731;28;20033;-52
2020/12/29 06:39:47;;;;;;;0.30;0.30;;;7.50;99.90;;;;;;4142058;28;20096;-45
2020/12/29 06:41:49;;;;;;;0.40;0.20;;;7.40;99.90;;;;;;4157320;28;20025;-46
2020/12/29 06:43:51;;;;;;;0.40;0.10;;;7.40;99.90;;;;;;4157620;28;20025;-47
2020/12/29 06:45:52;;;;;;;1.17;0.20;;;7.40;99.90;;;;;;4142173;28;20045;-51
2020/12/29 06:47:53;;;;;;;0.27;0.20;;;7.40;99.90;;;;;;4141546;28;20096;-46
2020/12/29 06:49:54;;;;;;;1.27;0.23;;;7.40;99.90;;;;;;4141098;28;20025;-48
2020/12/29 06:52:23;;;;;;;0.63;0.37;;;7.40;99.90;;;;;;4141400;28;20049;-47
2020/12/29 06:55:02;;;;;;;3.07;1.87;;;7.40;99.90;;;;;;4142092;28;20034;-50
2020/12/29 06:57:03;;;;;;;6.40;3.67;;;7.40;99.90;;;;;;4147814;28;20087;-56
2020/12/29 06:59:04;;;;;;;7.63;5.07;;;7.40;99.90;;;;;;4138828;28;20050;-55
2020/12/29 07:01:22;;;;;;;7.57;5.27;;;7.40;99.90;;;;;;4157187;28;20087;-48
2020/12/29 07:03:33;;;;;;;4.27;3.57;;;7.40;99.90;;;;;;4157975;28;20063;-46
2020/12/29 07:05:37;;;;;;;6.38;5.30;;;7.40;99.90;;;;;;4157079;28;20438;-53
2020/12/29 07:07:52;;;;;;;7.47;6.27;;;7.40;99.90;;;;;;4157853;28;20497;-54
2020/12/29 07:10:08;;;;;;;5.23;4.70;;;7.40;99.90;;;;;;4156587;28;20452;-44
2020/12/29 07:12:10;;;;;;;2.87;2.17;;;7.40;99.90;;;;;;4157213;28;20091;-44
2020/12/29 07:14:11;;;;;;;2.83;1.40;;;7.40;99.90;;;;;;4152484;28;20087;-45
2020/12/29 07:16:13;;;;;;;3.03;0.90;;;7.40;99.90;;;;;;4145831;28;20096;-45
2020/12/29 07:18:22;;;;;;;2.50;0.60;;;7.50;99.90;;;;;;4140163;28;20059;-43
2020/12/29 07:20:25;;;;;;;0.80;0.70;;;7.50;99.90;;;;;;4141458;28;20478;-50
2020/12/29 07:22:31;;;;;;;6.53;3.80;;;7.60;99.90;;;;;;4144240;28;20421;-51
2020/12/29 07:24:33;;;;;;;1.10;1.00;;;7.60;99.90;;;;;;4140888;28;20017;-53
2020/12/29 07:26:37;;;;;;;2.07;0.70;;;7.70;99.90;;;;;;4139578;28;20537;-51
2020/12/29 07:28:39;;;;;;;2.23;0.37;;;7.80;99.90;;;;;;4139924;28;20053;-44
2020/12/29 07:30:41;;;;;;;0.37;0.20;;;7.80;99.90;;;;;;4141512;28;20083;-51
2020/12/29 07:32:42;;;;;;;0.87;0.50;;;7.90;99.90;;;;;;4139850;28;20608;-49
2020/12/29 07:34:46;;;;;;;0.60;0.27;;;7.80;99.90;;;;;;4141378;28;20474;-49
2020/12/29 07:36:49;;;;;;;0.80;0.40;;;7.80;99.90;;;;;;4140504;28;20041;-50
2020/12/29 07:38:50;;;;;;;0.30;0.30;;;7.80;99.90;;;;;;4141274;28;20042;-47
2020/12/29 07:40:52;;;;;;;0.80;0.40;;;7.70;99.90;;;;;;4139108;28;20409;-53
2020/12/29 07:42:53;;;;;;;1.67;0.57;;;7.70;99.90;;;;;;4141281;28;20133;-55
2020/12/29 07:44:55;;;;;;;1.63;0.70;;;7.70;99.90;;;;;;4140045;28;20104;-48
2020/12/29 07:46:56;;;;;;;3.43;1.10;;;7.70;99.90;;;;;;4141504;28;20084;-57
2020/12/29 07:48:59;;;;;;;1.93;0.77;;;7.70;99.90;;;;;;4139800;28;20081;-44
2020/12/29 07:51:00;;;;;;;2.10;1.00;;;7.70;99.90;;;;;;4141277;28;20111;-51
2020/12/29 07:53:03;;;;;;;2.70;1.10;;;7.70;99.90;;;;;;4140126;28;20157;-45
2020/12/29 07:55:05;;;;;;;2.40;1.20;;;7.70;99.90;;;;;;4140449;28;20499;-45
2020/12/29 07:57:06;;;;;;;3.67;1.30;;;7.70;99.90;;;;;;4140571;28;20364;-46
2020/12/29 07:59:10;;;;;;;2.63;1.10;;;7.70;99.90;;;;;;4139773;28;20042;-46
2020/12/29 08:01:13;;;;;;;1.40;1.00;;;7.70;99.90;;;;;;4141166;28;20030;-46
2020/12/29 08:03:15;;;;;;;1.07;0.90;;;7.80;99.90;;;;;;4139424;28;20037;-45
2020/12/29 08:05:20;;;;;;;4.70;2.10;;;7.80;99.90;;;;;;4140965;28;20065;-46
2020/12/29 08:07:23;;;;;;;4.97;2.60;;;7.90;99.90;;;;;;4138613;28;20042;-44
2020/12/29 08:09:25;;;;;;;1.97;1.27;;;7.90;99.90;;;;;;4140316;28;20037;-45
2020/12/29 08:11:26;;;;;;;2.10;1.30;;;7.90;99.90;;;;;;4138021;28;20092;-49
2020/12/29 08:13:27;;;;;;;1.30;0.80;;;8.00;99.90;;;;;;4140314;28;20589;-45
2020/12/29 08:15:30;;;;;;;1.40;0.90;;;8.00;99.90;;;;;;4139739;28;20112;-54
2020/12/29 08:17:31;;;;;;;0.67;0.33;;;8.10;99.90;;;;;;4141523;28;20532;-42
2020/12/29 08:19:33;;;;;;;2.30;1.10;;;8.30;99.90;;;;;;4139791;28;20045;-49
2020/12/29 08:21:35;;;;;;;0.90;0.63;;;8.60;99.90;;;;;;4140901;28;20139;-52
2020/12/29 08:23:40;;;;;;;0.93;0.50;;;8.70;99.90;;;;;;4139869;28;20037;-53
2020/12/29 08:25:48;;;;;;;2.23;0.50;;;8.90;99.90;;;;;;4140670;28;20033;-43
2020/12/29 08:27:49;;;;;;;10.20;5.23;;;8.90;99.90;;;;;;4139047;28;20045;-46
2020/12/29 08:29:50;;;;;;;9.53;5.13;;;8.80;99.90;;;;;;4140012;28;20588;-45
2020/12/29 08:32:09;;;;;;;12.70;5.20;;;8.40;99.90;;;;;;4139848;28;20022;-43
2020/12/29 08:34:11;;;;;;;16.80;7.43;;;8.00;99.90;;;;;;4122819;28;20039;-42
2020/12/29 08:36:25;;;;;;;22.20;9.27;;;7.70;99.90;;;;;;4139665;28;20092;-40
2020/12/29 08:38:47;;;;;;;17.47;8.37;;;7.60;99.90;;;;;;4140211;28;20379;-49
2020/12/29 08:40:56;;;;;;;12.03;6.10;;;7.40;99.90;;;;;;4138921;28;20380;-42
2020/12/29 08:43:00;;;;;;;15.63;6.87;;;7.40;99.90;;;;;;4139915;28;20038;-47
2020/12/29 08:45:07;;;;;;;17.47;8.13;;;7.40;99.90;;;;;;4138735;28;20459;-43
2020/12/29 08:47:12;;;;;;;18.00;7.87;;;7.50;99.90;;;;;;4139812;28;20084;-41
2020/12/29 08:49:13;;;;;;;10.27;5.23;;;7.60;99.90;;;;;;4138962;28;20038;-43
2020/12/29 08:51:25;;;;;;;12.00;5.83;;;7.80;99.90;;;;;;4140360;28;20042;-50
2020/12/29 08:53:27;;;;;;;9.37;5.30;;;7.90;99.90;;;;;;4139279;28;20516;-47
2020/12/29 08:55:30;;;;;;;10.40;5.07;;;7.90;99.90;;;;;;4139649;28;20046;-50
2020/12/29 08:57:32;;;;;;;5.17;2.83;;;7.90;99.90;;;;;;4139567;28;20034;-57
2020/12/29 08:59:37;;;;;;;3.73;2.50;;;8.00;99.90;;;;;;4141904;28;20096;-43
2020/12/29 09:01:43;;;;;;;5.00;1.57;;;8.30;99.90;;;;;;4139632;28;20407;-54
2020/12/29 09:03:45;;;;;;;2.63;1.73;;;8.40;99.90;;;;;;4138143;28;20458;-46
2020/12/29 09:05:50;;;;;;;3.40;1.93;;;8.60;99.90;;;;;;4141791;28;20042;-41
2020/12/29 09:07:51;;;;;;;6.60;3.30;;;8.80;99.90;;;;;;4147571;28;20515;-53
2020/12/29 09:09:55;;;;;;;7.07;2.77;;;9.10;99.90;;;;;;4122168;28;20078;-54
2020/12/29 09:12:13;;;;;;;6.50;3.37;;;9.30;99.90;;;;;;4137564;28;20038;-61
2020/12/29 09:14:24;;;;;;;3.13;2.37;;;9.50;99.90;;;;;;4139419;28;20050;-46
2020/12/29 09:16:25;;;;;;;5.90;2.03;;;9.60;99.90;;;;;;4122145;28;20046;-56
2020/12/29 09:18:40;;;;;;;4.67;2.43;;;9.80;99.90;;;;;;4136845;28;20081;-55
2020/12/29 09:20:41;;;;;;;5.70;2.50;;;9.90;99.90;;;;;;4138056;28;20576;-53
2020/12/29 09:22:49;;;;;;;6.80;3.00;;;10.10;99.90;;;;;;4140562;28;20037;-53
2020/12/29 09:24:51;;;;;;;1.50;1.00;;;10.30;99.90;;;;;;4141150;28;20561;-47
2020/12/29 09:26:52;;;;;;;5.43;1.20;;;10.60;99.90;;;;;;4143860;28;20096;-46
2020/12/29 09:28:54;;;;;;;0.87;0.60;;;10.80;99.90;;;;;;4141208;28;20451;-49
2020/12/29 09:31:10;;;;;;;2.87;1.50;;;10.80;99.90;;;;;;4142214;28;20054;-47
2020/12/29 09:33:18;;;;;;;1.60;0.90;;;10.80;99.90;;;;;;4140868;28;20045;-56
2020/12/29 09:35:26;;;;;;;4.20;0.80;;;10.70;99.90;;;;;;4142881;28;20080;-46
2020/12/29 09:37:27;;;;;;;1.50;0.47;;;10.60;99.90;;;;;;4141475;28;20030;-43
2020/12/29 09:39:28;;;;;;;2.87;0.50;;;10.70;99.90;;;;;;4145559;28;20069;-44
2020/12/29 09:41:29;;;;;;;2.33;0.60;;;10.70;99.90;;;;;;4145633;28;20080;-51
2020/12/29 09:43:31;;;;;;;0.83;0.30;;;10.70;99.90;;;;;;4156145;28;20489;-48
2020/12/29 09:45:32;;;;;;;0.87;0.30;;;10.60;99.90;;;;;;4139954;28;20092;-46
2020/12/29 09:47:33;;;;;;;0.90;0.30;;;10.60;99.90;;;;;;4158126;28;20045;-46
2020/12/29 09:49:34;;;;;;;0.50;0.20;;;10.50;99.90;;;;;;4155416;28;20037;-47
2020/12/29 09:51:35;;;;;;;1.90;0.30;;;10.60;99.90;;;;;;4157242;28;20061;-47
2020/12/29 09:53:36;;;;;;;1.90;0.37;;;10.70;99.90;;;;;;4156663;28;20830;-56
2020/12/29 09:55:38;;;;;;;0.20;0.10;;;10.80;99.90;;;;;;4145039;28;20746;-52
2020/12/29 09:57:39;;;;;;;0.83;0.40;;;10.80;99.90;;;;;;4142519;28;20089;-49
2020/12/29 09:59:40;;;;;;;3.80;0.30;;;10.90;99.90;;;;;;4142072;28;20944;-56
2020/12/29 10:01:41;;;;;;;0.20;0.20;;;11.00;99.90;;;;;;4153679;28;20091;-51
2020/12/29 10:03:42;;;;;;;0.50;0.20;;;11.10;99.90;;;;;;4156329;28;20041;-54
2020/12/29 10:05:44;;;;;;;3.30;0.40;;;11.00;99.90;;;;;;4158748;28;20502;-56
2020/12/29 10:07:46;;;;;;;1.70;0.57;;;11.10;99.90;;;;;;4157387;28;20060;-47
2020/12/29 10:09:47;;;;;;;1.57;1.47;;;11.20;99.90;;;;;;4158570;28;20048;-47
2020/12/29 10:11:48;;;;;;;2.67;0.60;;;11.30;99.90;;;;;;4148255;28;20096;-46
2020/12/29 10:13:51;;;;;;;0.67;0.50;;;11.30;99.90;;;;;;4141023;28;20116;-55
2020/12/29 10:15:52;;;;;;;0.60;0.30;;;11.30;99.90;;;;;;4149018;28;20881;-51
2020/12/29 10:17:53;;;;;;;0.67;0.10;;;11.20;99.90;;;;;;4140397;28;20486;-51
2020/12/29 10:19:56;;;;;;;1.00;0.10;;;11.20;99.90;;;;;;4150079;28;20091;-47
2020/12/29 10:21:57;;;;;;;0.30;0.20;;;11.30;99.90;;;;;;4157527;28;20116;-55
2020/12/29 10:23:58;;;;;;;0.40;0.30;;;11.30;99.90;;;;;;4157819;28;20041;-52
2020/12/29 10:25:59;;;;;;;1.50;0.60;;;11.40;99.90;;;;;;4157492;28;20096;-48
2020/12/29 10:28:00;;;;;;;0.40;0.20;;;11.40;99.90;;;;;;4157954;28;20057;-50
2020/12/29 10:30:02;;;;;;;0.40;0.30;;;11.60;99.90;;;;;;4156600;28;20501;-52
2020/12/29 10:32:04;;;;;;;2.90;0.77;;;11.60;99.90;;;;;;4149309;28;20095;-55
2020/12/29 10:34:05;;;;;;;1.77;1.00;;;11.70;99.90;;;;;;4139891;28;20128;-53
2020/12/29 10:36:06;;;;;;;2.20;0.83;;;11.50;99.90;;;;;;4146192;28;20045;-52
2020/12/29 10:38:07;;;;;;;2.33;1.30;;;11.30;99.90;;;;;;4156817;28;20433;-52
2020/12/29 10:40:08;;;;;;;1.67;0.90;;;11.10;99.90;;;;;;4143698;28;20103;-52
2020/12/29 10:42:10;;;;;;;1.50;1.00;;;11.00;99.90;;;;;;4140900;28;20628;-49
2020/12/29 10:44:11;;;;;;;1.90;1.13;;;10.70;99.90;;;;;;4143983;28;20088;-53
2020/12/29 10:46:12;;;;;;;3.53;0.97;;;10.60;99.90;;;;;;4142446;28;20080;-48